Time;durP1;ratioP1;P1;durP2;ratioP2;P2;SDS_P1;SDS_P2;PMS_P1;PMS_P2;Temp;Humidity;BMP_temperature;BMP_pressure;BME280_temperature;BME280_humidity;BME280_pressure;Samples;Min_cycle;Max_cycle;Signal;HPM_P1;HPM_P2
2022/05/18 00:01:34;;;;;;;15.88;8.00;;;;;;;17.27;100.00;101818.66;4995303;28;20501;-60
2022/05/18 00:04:04;;;;;;;13.05;8.30;;;;;;;17.21;100.00;101825.31;4995491;28;20134;-60
2022/05/18 00:06:32;;;;;;;14.82;8.35;;;;;;;17.21;100.00;101820.84;4995195;28;20058;-60
2022/05/18 00:09:00;;;;;;;13.40;8.00;;;;;;;17.21;100.00;101820.00;4995335;28;20061;-60
2022/05/18 00:11:30;;;;;;;15.55;8.93;;;;;;;17.15;100.00;101821.31;4995197;28;20101;-60
2022/05/18 00:14:00;;;;;;;12.85;7.70;;;;;;;17.06;100.00;101824.69;4995272;28;20046;-60
2022/05/18 00:16:28;;;;;;;15.13;8.80;;;;;;;17.01;100.00;101825.03;4995409;28;20046;-60
2022/05/18 00:18:56;;;;;;;14.07;8.80;;;;;;;16.95;100.00;101824.69;4995221;28;20485;-60
2022/05/18 00:21:25;;;;;;;16.10;8.68;;;;;;;16.90;100.00;101828.50;4994965;28;20050;-60
2022/05/18 00:23:53;;;;;;;13.20;8.55;;;;;;;16.90;100.00;101828.50;4993744;28;20054;-60
2022/05/18 00:26:21;;;;;;;15.65;8.82;;;;;;;16.85;100.00;101824.47;4992291;28;20086;-60
2022/05/18 00:28:49;;;;;;;15.60;8.98;;;;;;;16.83;100.00;101826.44;4991491;28;20513;-59
2022/05/18 00:31:20;;;;;;;18.10;9.38;;;;;;;16.77;100.00;101827.75;4992699;28;20548;-60
2022/05/18 00:33:49;;;;;;;15.75;8.85;;;;;;;16.74;100.00;101827.94;4991305;28;20049;-60
2022/05/18 00:36:17;;;;;;;13.95;8.30;;;;;;;16.71;100.00;101833.50;4990750;28;20081;-60
2022/05/18 00:38:45;;;;;;;15.48;9.52;;;;;;;16.72;100.00;101830.72;4993502;28;20498;-60
2022/05/18 00:41:13;;;;;;;14.45;8.65;;;;;;;16.67;100.00;101835.53;4994453;28;20490;-59
2022/05/18 00:43:44;;;;;;;15.07;9.18;;;;;;;16.60;100.00;101822.84;4994404;28;20046;-60
2022/05/18 00:46:15;;;;;;;13.75;9.00;;;;;;;16.59;100.00;101829.97;4994527;28;20058;-60
2022/05/18 00:48:53;;;;;;;15.82;9.20;;;;;;;16.52;100.00;101831.38;4992981;28;20089;-59
2022/05/18 00:51:28;;;;;;;12.50;9.35;;;;;;;16.49;100.00;101824.50;4990971;28;20043;-60
2022/05/18 00:54:03;;;;;;;15.82;9.15;;;;;;;16.42;100.00;101822.44;4993228;28;20050;-60
2022/05/18 00:56:36;;;;;;;13.68;9.27;;;;;;;16.39;100.00;101819.03;4994300;28;20058;-59
2022/05/18 00:59:08;;;;;;;15.35;10.07;;;;;;;16.39;100.00;101826.16;4994418;28;20061;-61
2022/05/18 01:01:38;;;;;;;13.98;10.25;;;;;;;16.35;100.00;101822.03;4991400;28;20054;-60
2022/05/18 01:04:09;;;;;;;17.42;10.05;;;;;;;16.35;100.00;101828.19;4991021;28;20046;-60
2022/05/18 01:06:43;;;;;;;14.52;9.85;;;;;;;16.38;100.00;101830.59;4993644;28;20394;-60
2022/05/18 01:09:16;;;;;;;18.08;10.32;;;;;;;16.36;100.00;101829.88;4994000;28;20046;-60
2022/05/18 01:11:45;;;;;;;15.93;10.15;;;;;;;16.38;100.00;101838.56;4994024;28;20135;-60
2022/05/18 01:14:18;;;;;;;16.98;10.50;;;;;;;16.39;100.00;101834.97;4994095;28;20567;-60
2022/05/18 01:16:46;;;;;;;14.70;9.75;;;;;;;16.25;100.00;101829.81;4994226;28;20050;-60
2022/05/18 01:19:25;;;;;;;14.10;9.23;;;;;;;16.22;100.00;101830.06;4993832;28;20116;-60
2022/05/18 01:22:00;;;;;;;14.68;9.52;;;;;;;16.23;100.00;101834.41;4990225;28;20074;-60
2022/05/18 01:24:34;;;;;;;15.02;9.50;;;;;;;16.17;100.00;101837.50;4991315;28;20050;-58
2022/05/18 01:27:04;;;;;;;14.00;9.38;;;;;;;16.14;100.00;101833.28;4993570;28;20062;-59
2022/05/18 01:29:33;;;;;;;14.93;9.50;;;;;;;16.10;100.00;101838.91;4993363;28;20860;-60
2022/05/18 01:32:03;;;;;;;15.00;10.18;;;;;;;16.09;100.00;101839.88;4993628;28;20513;-60
2022/05/18 01:34:33;;;;;;;14.57;9.88;;;;;;;16.07;100.00;101837.31;4993596;28;20050;-60
2022/05/18 01:37:02;;;;;;;15.25;10.13;;;;;;;16.10;100.00;101833.59;4993590;28;20456;-60
2022/05/18 01:39:34;;;;;;;13.52;10.32;;;;;;;16.03;100.00;101833.19;4993381;28;20046;-60
2022/05/18 01:42:10;;;;;;;;;;;;;;;15.97;100.00;101834.50;4994098;28;20145;-59
2022/05/18 01:44:40;;;;;;;15.02;9.57;;;;;;;15.88;100.00;101837.81;4993134;28;20377;-59
2022/05/18 01:47:09;;;;;;;16.75;10.38;;;;;;;15.88;100.00;101830.72;4989879;28;20050;-60
2022/05/18 01:49:41;;;;;;;14.45;9.52;;;;;;;15.86;100.00;101837.09;4991526;28;20050;-60
2022/05/18 01:52:10;;;;;;;15.25;9.82;;;;;;;15.88;100.00;101832.50;4993450;28;20050;-59
2022/05/18 01:54:40;;;;;;;16.02;9.88;;;;;;;15.86;100.00;101837.91;4993343;28;20128;-59
2022/05/18 01:57:10;;;;;;;14.80;9.75;;;;;;;15.91;100.00;101840.25;4992983;28;20077;-59
2022/05/18 01:59:39;;;;;;;15.00;10.10;;;;;;;15.86;100.00;101834.44;4992992;28;20047;-60
2022/05/18 02:02:12;;;;;;;13.65;9.35;;;;;;;15.83;100.00;101838.16;4993023;28;20494;-59
2022/05/18 02:04:42;;;;;;;16.85;9.88;;;;;;;15.75;100.00;101831.66;4993250;28;20053;-59
2022/05/18 02:07:10;;;;;;;16.13;10.20;;;;;;;15.68;100.00;101840.06;4993165;28;20056;-59
2022/05/18 02:09:38;;;;;;;14.13;9.57;;;;;;;15.66;100.00;101836.66;4991582;28;20054;-59
2022/05/18 02:12:10;;;;;;;14.98;10.10;;;;;;;15.66;100.00;101839.31;4991097;28;20105;-60
2022/05/18 02:14:38;;;;;;;16.67;9.95;;;;;;;15.70;100.00;101847.91;4989205;28;20042;-58
2022/05/18 02:17:06;;;;;;;14.10;10.00;;;;;;;15.60;100.00;101839.75;4990503;28;20053;-58
2022/05/18 02:19:35;;;;;;;13.75;9.23;;;;;;;15.64;100.00;101835.09;4992344;28;20054;-59
2022/05/18 02:22:03;;;;;;;17.58;9.52;;;;;;;15.58;100.00;101838.16;4992651;28;20042;-59
2022/05/18 02:24:31;;;;;;;16.00;9.90;;;;;;;15.59;100.00;101839.88;4992140;28;20047;-60
2022/05/18 02:27:00;;;;;;;17.48;10.02;;;;;;;15.59;100.00;101837.22;4992483;28;20054;-60
2022/05/18 02:29:29;;;;;;;17.85;10.80;;;;;;;15.51;100.00;101835.09;4992699;28;20066;-60
2022/05/18 02:31:57;;;;;;;16.42;10.43;;;;;;;15.46;100.00;101837.22;4992849;28;20080;-60
2022/05/18 02:34:25;;;;;;;18.10;10.80;;;;;;;15.51;100.00;101835.09;4988873;28;20057;-60
2022/05/18 02:36:54;;;;;;;13.90;10.00;;;;;;;15.43;100.00;101832.13;4989968;28;20057;-59
2022/05/18 02:39:22;;;;;;;18.23;10.30;;;;;;;15.45;100.00;101833.72;4992663;28;20097;-60
2022/05/18 02:41:50;;;;;;;14.45;11.05;;;;;;;15.46;100.00;101831.91;4992765;28;20375;-59
2022/05/18 02:44:19;;;;;;;17.27;11.50;;;;;;;15.38;100.00;101835.13;4992602;28;20134;-59
2022/05/18 02:46:49;;;;;;;16.40;10.90;;;;;;;15.42;100.00;101828.66;4992354;28;20070;-60
2022/05/18 02:49:17;;;;;;;16.13;10.85;;;;;;;15.46;100.00;101829.25;4988925;28;20055;-58
2022/05/18 02:51:45;;;;;;;17.77;11.90;;;;;;;15.36;100.00;101831.72;4989924;28;20058;-59
2022/05/18 02:57:02;;;;;;;18.42;11.75;;;;;;;15.32;100.00;101833.72;4992799;28;20438;-60
2022/05/18 02:59:31;;;;;;;15.98;10.75;;;;;;;15.30;100.00;101834.81;4992858;28;20129;-60
2022/05/18 03:02:01;;;;;;;17.58;11.40;;;;;;;15.24;100.00;101820.16;4993231;28;20081;-58
2022/05/18 03:04:30;;;;;;;16.90;11.07;;;;;;;15.14;100.00;101824.41;4993862;28;20046;-60
2022/05/18 03:06:59;;;;;;;14.73;10.45;;;;;;;15.09;100.00;101827.38;4996265;28;20046;-59
2022/05/18 03:09:28;;;;;;;15.77;11.52;;;;;;;15.13;100.00;101826.19;4995010;28;20047;-60
2022/05/18 03:11:56;;;;;;;16.95;11.10;;;;;;;15.10;100.00;101822.94;4996084;28;20105;-60
2022/05/18 03:14:25;;;;;;;16.33;11.57;;;;;;;15.10;100.00;101834.38;4994654;28;20141;-60
2022/05/18 03:16:53;;;;;;;17.95;11.85;;;;;;;15.04;100.00;101830.34;4996561;28;20053;-59
2022/05/18 03:19:23;;;;;;;16.65;11.40;;;;;;;15.03;100.00;101828.63;4996148;28;20085;-60
2022/05/18 03:24:37;;;;;;;15.70;11.75;;;;;;;14.95;100.00;101833.63;4996168;28;20145;-60
2022/05/18 03:27:05;;;;;;;15.95;11.57;;;;;;;14.96;100.00;101840.63;4996025;28;20097;-60
2022/05/18 03:29:34;;;;;;;14.73;11.35;;;;;;;14.94;100.00;101839.03;4996275;28;20054;-60
2022/05/18 03:32:02;;;;;;;18.95;11.30;;;;;;;14.92;100.00;101836.47;4993715;28;20046;-60
2022/05/18 03:34:33;;;;;;;19.58;12.13;;;;;;;14.95;100.00;101844.22;4991890;28;20121;-59
2022/05/18 03:37:01;;;;;;;15.23;11.57;;;;;;;14.90;100.00;101848.97;4995221;28;20046;-59
2022/05/18 03:39:29;;;;;;;17.35;11.35;;;;;;;14.97;100.00;101850.28;4994354;28;20054;-59
2022/05/18 03:41:57;;;;;;;16.17;11.52;;;;;;;14.90;100.00;101858.72;4990628;28;20094;-59
2022/05/18 03:44:25;;;;;;;16.63;11.27;;;;;;;14.98;100.00;101861.69;4993639;28;20405;-59
2022/05/18 03:46:53;;;;;;;15.95;10.85;;;;;;;14.95;100.00;101862.75;4995675;28;20050;-60
2022/05/18 03:49:22;;;;;;;18.25;12.10;;;;;;;14.92;100.00;101856.84;4995551;28;20054;-60
2022/05/18 03:51:51;;;;;;;15.70;11.00;;;;;;;14.93;100.00;101863.81;4995641;28;20127;-60
2022/05/18 03:54:19;;;;;;;14.20;10.88;;;;;;;14.96;100.00;101859.16;4995639;28;20051;-59
2022/05/18 03:56:47;;;;;;;17.38;11.38;;;;;;;14.93;100.00;101869.97;4992730;28;20042;-59
2022/05/18 03:59:15;;;;;;;16.17;11.40;;;;;;;14.92;100.00;101865.63;4992091;28;20038;-59
2022/05/18 04:01:43;;;;;;;14.55;10.75;;;;;;;14.84;100.00;101870.59;4994366;28;20061;-59
2022/05/18 04:04:12;;;;;;;15.40;11.57;;;;;;;14.83;100.00;101868.88;4995259;28;20088;-59
2022/05/18 04:06:40;;;;;;;14.60;10.98;;;;;;;14.84;100.00;101868.78;4994589;28;20064;-59
2022/05/18 04:09:09;;;;;;;14.95;10.10;;;;;;;14.85;100.00;101869.63;4991933;28;20062;-59
2022/05/18 04:11:37;;;;;;;17.88;11.20;;;;;;;14.78;100.00;101870.97;4991693;28;20584;-60
2022/05/18 04:14:05;;;;;;;14.30;11.05;;;;;;;14.79;100.00;101878.84;4995081;28;20038;-58
2022/05/18 04:16:34;;;;;;;15.60;11.73;;;;;;;14.78;100.00;101878.91;4992323;28;20460;-59
2022/05/18 04:19:03;;;;;;;15.38;11.52;;;;;;;14.75;100.00;101882.66;4991445;28;20568;-58
2022/05/18 04:21:31;;;;;;;16.27;11.60;;;;;;;14.79;100.00;101883.28;4994821;28;20050;-58
2022/05/18 04:23:59;;;;;;;17.48;12.02;;;;;;;14.81;100.00;101881.38;4994835;28;20081;-60
2022/05/18 04:26:29;;;;;;;17.23;12.27;;;;;;;14.83;100.00;101879.47;4994616;28;20051;-59
2022/05/18 04:28:57;;;;;;;15.50;11.27;;;;;;;14.89;100.00;101884.38;4994958;28;20046;-60
2022/05/18 04:31:25;;;;;;;16.67;10.57;;;;;;;14.98;100.00;101882.88;4994858;28;20081;-59
2022/05/18 04:33:53;;;;;;;14.95;11.65;;;;;;;14.93;100.00;101891.16;4994841;28;20097;-60
2022/05/18 04:36:21;;;;;;;15.15;10.32;;;;;;;14.94;100.00;101882.25;4994937;28;20054;-59
2022/05/18 04:38:49;;;;;;;16.63;12.45;;;;;;;14.97;100.00;101891.78;4994821;28;20042;-58
2022/05/18 04:41:17;;;;;;;17.67;12.40;;;;;;;14.98;100.00;101894.34;4994750;28;20151;-58
2022/05/18 04:43:47;;;;;;;17.30;12.32;;;;;;;15.03;100.00;101900.16;4994473;28;20086;-59
2022/05/18 04:46:15;;;;;;;16.00;11.85;;;;;;;15.02;100.00;101903.78;4994798;28;20050;-58
2022/05/18 04:48:43;;;;;;;16.25;13.23;;;;;;;15.11;100.00;101904.97;4993944;28;20527;-58
2022/05/18 04:51:11;;;;;;;17.83;13.05;;;;;;;15.20;100.00;101904.34;4988886;28;20054;-57
2022/05/18 04:53:39;;;;;;;16.63;11.98;;;;;;;15.27;100.00;101899.47;4992069;28;20038;-57
2022/05/18 04:56:07;;;;;;;16.77;12.35;;;;;;;15.34;100.00;101902.56;4981518;28;20047;-58
2022/05/18 04:58:35;;;;;;;17.77;11.73;;;;;;;15.43;100.00;101898.41;4974407;28;20051;-58
2022/05/18 05:01:07;;;;;;;15.02;11.85;;;;;;;15.52;100.00;101906.56;4971500;28;20501;-57
2022/05/18 05:03:36;;;;;;;16.73;12.45;;;;;;;15.63;100.00;101910.28;4973765;28;20059;-57
2022/05/18 05:06:06;;;;;;;16.67;12.48;;;;;;;15.73;100.00;101921.94;4974878;28;20486;-60
2022/05/18 05:08:35;;;;;;;18.33;12.18;;;;;;;15.83;100.00;101914.22;4984394;28;20528;-58
2022/05/18 05:11:04;;;;;;;17.63;11.38;;;;;;;15.89;100.00;101916.44;4993514;28;20574;-59
2022/05/18 05:13:33;;;;;;;17.15;11.27;;;;;;;15.94;100.00;101911.66;4993054;28;20080;-60
2022/05/18 05:16:03;;;;;;;15.63;11.35;;;;;;;16.04;100.00;101919.81;4975661;28;20047;-60
2022/05/18 05:18:33;;;;;;;16.15;11.60;;;;;;;16.09;100.00;101915.03;4973423;28;20050;-58
2022/05/18 05:21:02;;;;;;;16.33;10.82;;;;;;;16.18;100.00;101921.47;4975157;28;20117;-58
2022/05/18 05:23:30;;;;;;;15.52;10.60;;;;;;;16.25;100.00;101922.69;4974252;28;20046;-58
2022/05/18 05:25:59;;;;;;;15.20;11.02;;;;;;;16.32;100.00;101920.47;4973053;28;20058;-59
2022/05/18 05:28:27;;;;;;;15.35;10.07;;;;;;;16.37;100.00;101916.53;4971238;28;20125;-60
2022/05/18 05:30:55;;;;;;;12.40;9.70;;;;;;;16.44;100.00;101919.56;4981027;28;20108;-58
2022/05/18 05:33:23;;;;;;;16.67;9.48;;;;;;;16.52;100.00;101925.19;4993591;28;20101;-57
2022/05/18 05:35:59;;;;;;;16.20;10.52;;;;;;;16.66;100.00;101917.97;4983332;28;20054;-59
2022/05/18 05:38:28;;;;;;;13.30;8.90;;;;;;;16.75;100.00;101924.44;4992398;28;20054;-57
2022/05/18 05:40:56;;;;;;;12.60;8.63;;;;;;;16.81;100.00;101926.63;4987465;28;20105;-58
2022/05/18 05:43:24;;;;;;;13.13;8.68;;;;;;;16.89;100.00;101925.13;4986356;28;20046;-58
2022/05/18 05:45:57;;;;;;;17.35;9.48;;;;;;;16.98;100.00;101930.72;4989229;28;20031;-58
2022/05/18 05:48:26;;;;;;;13.18;8.95;;;;;;;17.06;100.00;101929.16;4987733;28;20421;-59
2022/05/18 05:50:54;;;;;;;12.70;9.25;;;;;;;17.16;100.00;101925.81;4990322;28;20454;-59
2022/05/18 05:53:24;;;;;;;11.73;7.85;;;;;;;17.27;100.00;101925.84;4993240;28;20122;-59
2022/05/18 05:55:53;;;;;;;11.65;9.02;;;;;;;17.36;100.00;101926.97;4993257;28;20042;-60
2022/05/18 05:58:22;;;;;;;10.40;7.45;;;;;;;17.45;100.00;101934.22;4993390;28;20461;-59
2022/05/18 06:00:51;;;;;;;14.63;7.63;;;;;;;17.56;100.00;101934.22;4993142;28;20057;-59
2022/05/18 06:03:20;;;;;;;12.65;7.28;;;;;;;17.75;100.00;101943.41;4993287;28;20045;-59
2022/05/18 06:05:48;;;;;;;12.40;6.47;;;;;;;17.96;100.00;101934.75;4993054;28;20537;-59
2022/05/18 06:08:16;;;;;;;10.65;6.18;;;;;;;18.09;100.00;101943.44;4991524;28;20050;-59
2022/05/18 06:10:45;;;;;;;10.38;5.90;;;;;;;18.29;100.00;101944.50;4988631;28;20073;-59
2022/05/18 06:13:13;;;;;;;12.38;5.90;;;;;;;18.47;100.00;101936.00;4991924;28;20465;-60
2022/05/18 06:15:42;;;;;;;11.02;6.07;;;;;;;18.67;99.74;101937.88;4992875;28;20054;-59
2022/05/18 06:18:10;;;;;;;10.65;6.05;;;;;;;18.86;97.43;101933.69;4992580;28;20054;-61
2022/05/18 06:20:45;;;;;;;8.23;5.38;;;;;;;19.06;97.74;101937.38;4992336;28;20074;-60
2022/05/18 06:23:13;;;;;;;10.57;5.63;;;;;;;19.25;100.00;101947.31;4992496;28;20141;-60
2022/05/18 06:25:41;;;;;;;9.13;5.05;;;;;;;19.48;97.81;101945.34;4992578;28;20042;-60
2022/05/18 06:28:11;;;;;;;9.77;4.90;;;;;;;19.62;97.08;101944.19;4992614;28;20133;-61
2022/05/18 06:30:41;;;;;;;10.20;5.38;;;;;;;19.81;93.22;101943.47;4992585;28;20113;-61
2022/05/18 06:33:10;;;;;;;13.90;4.90;;;;;;;19.98;95.97;101946.47;4991714;28;20145;-61
2022/05/18 06:35:38;;;;;;;9.07;4.80;;;;;;;20.07;92.74;101949.19;4992829;28;20512;-61
2022/05/18 06:38:11;;;;;;;11.13;4.95;;;;;;;20.21;90.15;101949.78;4993022;28;20524;-61
2022/05/18 06:43:26;;;;;;;9.13;4.45;;;;;;;20.38;91.05;101950.94;4992873;28;20498;-61
2022/05/18 06:45:55;;;;;;;7.32;4.38;;;;;;;20.55;88.65;101950.25;4990663;28;20050;-62
2022/05/18 06:48:23;;;;;;;9.57;4.63;;;;;;;20.82;87.27;101958.59;4989108;28;20093;-61
2022/05/18 06:51:11;;;;;;;10.50;4.47;;;;;;;20.94;85.74;101957.47;4992694;28;20129;-59
2022/05/18 06:53:40;;;;;;;7.28;4.32;;;;;;;21.09;86.81;101953.41;4992616;28;20105;-59
2022/05/18 06:56:08;;;;;;;9.13;4.13;;;;;;;21.26;83.76;101953.66;4992661;28;20038;-59
2022/05/18 06:58:38;;;;;;;8.55;3.90;;;;;;;21.48;84.95;101960.50;4992572;28;20042;-59
2022/05/18 07:01:07;;;;;;;9.15;4.20;;;;;;;21.61;83.89;101955.72;4989959;28;20506;-59
2022/05/18 07:03:36;;;;;;;7.18;4.22;;;;;;;21.85;81.65;101962.38;4989374;28;20050;-59
2022/05/18 07:06:05;;;;;;;7.90;4.72;;;;;;;22.12;79.42;101966.06;4992657;28;20490;-59
2022/05/18 07:08:33;;;;;;;9.32;4.40;;;;;;;22.39;79.71;101969.75;4992663;28;20050;-59
2022/05/18 07:11:03;;;;;;;8.90;4.28;;;;;;;22.57;77.22;101970.59;4989777;28;20464;-59
2022/05/18 07:13:32;;;;;;;8.18;3.85;;;;;;;22.75;77.29;101967.09;4988935;28;20490;-60
2022/05/18 07:16:03;;;;;;;7.72;4.05;;;;;;;22.94;76.22;101968.78;4991347;28;20501;-61
2022/05/18 07:18:33;;;;;;;8.40;4.10;;;;;;;22.99;72.88;101971.84;4992291;28;20050;-62
2022/05/18 07:21:03;;;;;;;8.65;3.92;;;;;;;23.03;74.22;101975.91;4992301;28;20453;-60
2022/05/18 07:23:32;;;;;;;8.00;4.05;;;;;;;23.23;74.17;101967.69;4992222;28;20053;-61
2022/05/18 07:26:01;;;;;;;8.75;4.80;;;;;;;23.14;69.71;101974.84;4992236;28;20556;-61
2022/05/18 07:28:29;;;;;;;9.63;5.03;;;;;;;23.29;72.13;101969.75;4989785;28;20050;-59
2022/05/18 07:30:58;;;;;;;9.20;4.68;;;;;;;23.39;70.45;101967.81;4990412;28;20493;-60
2022/05/18 07:33:28;;;;;;;10.73;5.30;;;;;;;23.42;69.64;101978.25;4992303;28;20054;-60
2022/05/18 07:35:56;;;;;;;10.38;5.18;;;;;;;23.52;68.92;101975.44;4992743;28;20050;-60
2022/05/18 07:38:27;;;;;;;9.25;5.38;;;;;;;23.64;68.88;101986.75;4992555;28;20510;-60
2022/05/18 07:41:12;;;;;;;10.65;6.00;;;;;;;23.67;67.15;101989.13;4992342;28;20054;-60
2022/05/18 07:43:41;;;;;;;11.13;6.28;;;;;;;23.68;69.28;101989.97;4991641;28;20453;-60
2022/05/18 07:46:11;;;;;;;10.35;5.72;;;;;;;23.68;69.49;101996.16;4991581;28;20058;-60
2022/05/18 07:48:41;;;;;;;11.43;6.03;;;;;;;23.61;69.20;101997.81;4994786;28;20129;-61
2022/05/18 07:51:10;;;;;;;11.38;5.78;;;;;;;23.74;69.94;101998.22;4995936;28;20054;-60
2022/05/18 07:53:38;;;;;;;10.63;6.75;;;;;;;23.86;67.81;102003.31;4995702;28;20105;-61
2022/05/18 07:56:12;;;;;;;13.52;6.90;;;;;;;23.84;66.24;102005.34;4995673;28;20108;-61
2022/05/18 07:58:40;;;;;;;14.68;7.60;;;;;;;23.93;66.98;102007.09;4993870;28;20050;-61
2022/05/18 08:01:08;;;;;;;13.00;7.07;;;;;;;24.09;67.88;102006.31;4992129;28;20498;-61
2022/05/18 08:03:37;;;;;;;12.30;7.15;;;;;;;24.17;67.00;102017.09;4994449;28;20066;-61
2022/05/18 08:06:06;;;;;;;11.73;7.60;;;;;;;24.17;67.86;102010.88;4995231;28;20184;-62
2022/05/18 08:08:34;;;;;;;13.35;8.65;;;;;;;24.19;65.28;102019.63;4994872;28;20094;-61
2022/05/18 08:16:34;;;;;;;13.65;8.15;;;;;;;24.34;67.38;102020.69;4994870;28;20093;-61
2022/05/18 08:19:06;;;;;;;13.13;9.45;;;;;;;24.57;67.23;102014.69;4994967;28;20089;-61
2022/05/18 08:21:35;;;;;;;15.30;9.73;;;;;;;24.72;66.16;102014.94;4993560;28;20466;-60
2022/05/18 08:24:04;;;;;;;14.18;9.45;;;;;;;24.77;65.29;102012.59;4991660;28;20105;-59
2022/05/18 08:26:33;;;;;;;14.10;10.02;;;;;;;24.84;64.28;102020.84;4993172;28;20512;-60
2022/05/18 08:29:01;;;;;;;14.27;9.60;;;;;;;25.06;63.50;102019.34;4995218;28;20049;-60
2022/05/18 08:31:30;;;;;;;14.68;11.23;;;;;;;25.28;62.08;102017.84;4995008;28;20396;-61
2022/05/18 08:33:58;;;;;;;16.10;9.75;;;;;;;25.54;62.71;102008.75;4995242;28;20050;-60
2022/05/18 08:36:26;;;;;;;14.23;9.30;;;;;;;25.74;63.33;102015.44;4995265;28;20054;-60
2022/05/18 08:38:56;;;;;;;17.05;11.57;;;;;;;25.86;60.89;102018.59;4994897;28;20050;-59
2022/05/18 08:41:27;;;;;;;14.43;9.23;;;;;;;26.15;61.68;102009.06;4994947;28;20042;-60
2022/05/18 08:43:59;;;;;;;16.63;10.73;;;;;;;26.05;59.49;102014.69;4993706;28;20517;-59
2022/05/18 08:46:42;;;;;;;15.27;10.13;;;;;;;26.14;60.20;102013.66;4994723;28;20554;-59
2022/05/18 08:49:20;;;;;;;14.10;10.27;;;;;;;26.17;58.84;102014.31;4994900;28;20047;-59
2022/05/18 08:51:58;;;;;;;16.17;10.07;;;;;;;26.28;58.81;102019.31;4994710;28;20498;-59
2022/05/18 08:54:45;;;;;;;14.15;9.30;;;;;;;26.44;59.15;102019.22;4995113;28;20068;-59
2022/05/18 08:57:20;;;;;;;12.25;8.13;;;;;;;26.62;59.62;102016.25;4992243;28;20058;-59
2022/05/18 08:59:53;;;;;;;12.55;8.68;;;;;;;26.89;58.57;102015.94;4992111;28;20613;-59
2022/05/18 09:02:34;;;;;;;16.95;8.38;;;;;;;27.13;57.10;102014.91;4994608;28;20112;-59
2022/05/18 09:05:06;;;;;;;14.00;9.13;;;;;;;27.25;55.90;102010.72;4992516;28;20181;-60
2022/05/18 09:08:00;;;;;;;14.48;9.15;;;;;;;27.46;56.13;102010.06;4993357;28;20497;-60
2022/05/18 09:10:35;;;;;;;14.23;9.52;;;;;;;27.67;56.08;102013.91;4994651;28;20112;-61
2022/05/18 09:13:03;;;;;;;12.95;8.93;;;;;;;27.85;55.00;102015.41;4994709;28;20104;-61
2022/05/18 09:15:36;;;;;;;14.77;8.85;;;;;;;28.09;54.79;102017.00;4993967;28;20047;-60
2022/05/18 09:18:13;;;;;;;12.63;7.60;;;;;;;28.34;55.34;102020.22;4994356;28;20078;-60
2022/05/18 09:20:48;;;;;;;12.30;7.25;;;;;;;28.57;55.23;102008.41;4994386;28;20057;-60
2022/05/18 09:23:31;;;;;;;9.98;7.13;;;;;;;28.74;54.51;102014.44;4994523;28;20359;-60
2022/05/18 09:26:18;;;;;;;12.70;8.45;;;;;;;28.46;53.63;102007.88;4991191;28;20124;-60
2022/05/18 09:28:52;;;;;;;15.15;8.15;;;;;;;28.60;53.09;102013.44;4993409;28;20474;-60
2022/05/18 09:31:37;;;;;;;11.13;6.93;;;;;;;28.63;53.75;102015.75;4994344;28;20442;-59
2022/05/18 09:34:20;;;;;;;13.10;8.20;;;;;;;28.66;53.28;102008.13;4994602;28;20355;-60
2022/05/18 09:37:15;;;;;;;11.93;7.80;;;;;;;28.60;54.32;102008.84;4994039;28;20133;-59
2022/05/18 09:39:50;;;;;;;12.65;6.88;;;;;;;29.07;53.75;102005.78;4994044;28;20150;-59
2022/05/18 09:42:23;;;;;;;11.23;7.40;;;;;;;28.93;52.94;102007.53;4994146;28;20401;-59
2022/05/18 09:44:58;;;;;;;12.50;6.57;;;;;;;29.25;54.26;102002.63;4993752;28;20058;-61
2022/05/18 09:47:32;;;;;;;10.00;6.60;;;;;;;29.63;52.48;102007.69;4993606;28;20102;-61
2022/05/18 09:50:06;;;;;;;12.73;7.25;;;;;;;29.23;51.15;102001.94;4993486;28;20058;-61
2022/05/18 09:52:37;;;;;;;11.75;6.18;;;;;;;29.56;51.99;102006.78;4993358;28;20112;-61
2022/05/18 09:55:08;;;;;;;14.13;7.28;;;;;;;29.84;49.94;102006.75;4993504;28;20379;-61
2022/05/18 09:57:43;;;;;;;12.00;6.80;;;;;;;30.01;48.81;102007.28;4993223;28;20042;-61
2022/05/18 10:00:15;;;;;;;12.35;6.60;;;;;;;30.13;48.73;102010.25;4993201;28;20054;-60
2022/05/18 10:08:23;;;;;;;11.20;7.25;;;;;;;30.29;46.91;102007.16;4992723;28;20101;-62
2022/05/18 10:10:57;;;;;;;12.70;7.55;;;;;;;30.55;46.88;102010.22;4992933;28;20046;-62
2022/05/18 10:13:32;;;;;;;10.80;5.85;;;;;;;30.75;45.77;102010.25;4993531;28;20060;-60
2022/05/18 10:16:16;;;;;;;9.63;6.22;;;;;;;30.91;45.19;102014.41;4993068;28;20046;-61
2022/05/18 10:18:47;;;;;;;10.95;6.03;;;;;;;30.98;46.20;102013.38;4993039;28;20129;-58
2022/05/18 10:21:24;;;;;;;11.73;6.85;;;;;;;31.24;46.73;102017.19;4992641;28;20385;-61
2022/05/18 10:24:04;;;;;;;9.98;7.50;;;;;;;30.96;44.20;102007.31;4991831;28;20060;-62
2022/05/18 10:26:35;;;;;;;11.25;7.45;;;;;;;31.01;45.53;102010.25;4987343;28;20062;-61
2022/05/18 10:29:07;;;;;;;14.52;7.28;;;;;;;31.39;45.49;102006.09;4991302;28;20445;-63
2022/05/18 10:31:38;;;;;;;10.82;7.57;;;;;;;31.44;44.01;102002.72;4990672;28;20046;-62
2022/05/18 10:34:18;;;;;;;17.00;7.93;;;;;;;31.75;44.91;102002.06;4989151;28;20137;-62
2022/05/18 10:36:48;;;;;;;14.38;6.93;;;;;;;31.89;43.86;101991.13;4991327;28;20034;-61
2022/05/18 10:39:37;;;;;;;10.05;7.07;;;;;;;31.63;45.44;101991.03;4989305;28;20477;-61
2022/05/18 10:42:23;;;;;;;10.05;6.80;;;;;;;32.16;42.02;101981.84;4991292;28;20393;-62
2022/05/18 10:44:54;;;;;;;11.27;5.13;;;;;;;32.12;43.22;101982.44;4991193;28;20058;-61
2022/05/18 10:47:27;;;;;;;9.80;6.35;;;;;;;32.43;42.08;101987.13;4992788;28;20494;-62
2022/05/18 10:50:21;;;;;;;9.40;5.97;;;;;;;32.32;42.08;101979.66;4992366;28;20100;-61
2022/05/18 10:52:50;;;;;;;10.48;6.63;;;;;;;32.30;42.20;101981.75;4992262;28;20050;-62
2022/05/18 10:55:20;;;;;;;10.30;6.00;;;;;;;32.53;42.32;101979.31;4992450;28;20129;-61
2022/05/18 10:57:57;;;;;;;12.38;6.63;;;;;;;32.76;41.49;101977.91;4992271;28;20059;-61
2022/05/18 11:00:33;;;;;;;12.93;7.40;;;;;;;33.16;41.06;101972.13;4992309;28;20404;-61
2022/05/18 11:03:09;;;;;;;10.18;6.60;;;;;;;33.46;39.92;101967.84;4992455;28;20050;-61
2022/05/18 11:05:43;;;;;;;11.77;7.28;;;;;;;33.12;38.43;101968.19;4992331;28;20054;-62
2022/05/18 11:08:14;;;;;;;12.60;7.30;;;;;;;32.85;41.53;101967.59;4991744;28;20490;-62
2022/05/18 11:10:49;;;;;;;11.32;7.20;;;;;;;33.24;40.22;101961.97;4991799;28;20046;-63
2022/05/18 11:13:31;;;;;;;9.10;6.70;;;;;;;33.39;38.78;101962.47;4992403;28;20512;-61
2022/05/18 11:16:10;;;;;;;10.45;8.13;;;;;;;33.09;38.85;101954.16;4992302;28;20046;-61
2022/05/18 11:18:45;;;;;;;12.20;7.70;;;;;;;33.02;40.14;101967.84;4990145;28;20129;-61
2022/05/18 11:21:23;;;;;;;10.63;6.53;;;;;;;33.23;39.61;101954.84;4991063;28;20058;-60
2022/05/18 11:24:12;;;;;;;11.00;5.78;;;;;;;33.56;40.37;101959.16;4996079;28;20061;-60
2022/05/18 11:26:51;;;;;;;10.68;6.50;;;;;;;34.05;37.65;101960.03;4995055;28;20441;-61
2022/05/18 11:29:46;;;;;;;12.57;6.85;;;;;;;33.62;37.66;101958.25;4992676;28;20122;-59
2022/05/18 11:32:26;;;;;;;10.55;7.05;;;;;;;33.84;37.28;101962.19;4994767;28;20101;-61
2022/05/18 11:35:13;;;;;;;10.73;5.78;;;;;;;34.13;39.00;101962.44;4995611;28;20105;-62
2022/05/18 11:37:57;;;;;;;10.32;6.13;;;;;;;34.15;37.20;101962.22;4996711;28;20088;-60
2022/05/18 11:40:41;;;;;;;11.02;6.47;;;;;;;34.15;37.30;101956.75;4995798;28;20062;-60
2022/05/18 11:43:28;;;;;;;11.80;6.55;;;;;;;34.39;36.89;101952.22;4996138;28;20053;-60
2022/05/18 11:46:14;;;;;;;9.27;6.20;;;;;;;34.33;36.65;101956.72;4996061;28;20050;-60
2022/05/18 11:48:52;;;;;;;11.23;5.82;;;;;;;34.75;36.11;101955.03;4996124;28;20050;-61
2022/05/18 11:51:32;;;;;;;9.73;6.20;;;;;;;34.20;36.70;101946.78;4996026;28;20073;-60